Disclaimer

Please do not use the information listed here in-flight or in-navigation, as they are not provided to us by the airports but are provided by volunteers, so they might be outdated.

Search


Regions


Airport information page

No radio frequency information is available.

Airport informations:
Latitude: 36° 09' 04.39" N
Longitude: 005° 20' 58.79" W
Elevation: 15 feet - 5 meters
Operating hours: Remarks
Operating agency: Military-civil joint use airport
Timezone: UTC+1(+2DT) - Last Sunday in March to last Sunday in October
Fuel: Jet A, without icing inhibitor.

JP-8, SemiKeroscene MIL Spec T-83133, without icing inhibitor

Runway information:
09/27 - 6000 x 150 feet< - >1829 x 46 meters

Recent METARs:
LXGB 210250Z AUTO 23009KT 9999 // SCT041/// BKN050/// 16/13 Q1012
LXGB 210250Z AUTO 23009KT 9999 // SCT041/// BKN050/// 16/13 Q1012
LXGB 210350Z AUTO 18007KT 9999 // BKN050/// BKN120/// 16/13 Q1012

Airport on the map: